Time;durP1;ratioP1;P1;durP2;ratioP2;P2;SDS_P1;SDS_P2;PMS_P1;PMS_P2;Temp;Humidity;BMP_temperature;BMP_pressure;BME280_temperature;BME280_humidity;BME280_pressure;Samples;Min_cycle;Max_cycle;Signal;HPM_P1;HPM_P2
2022/11/05 00:09:31;;;;;;;4.38;2.47;;;;;;;;;;6123497;23;20018;-81
2022/11/05 00:17:32;;;;;;;7.60;2.55;;;;;;;;;;6122822;23;20065;-81
2022/11/05 00:19:58;;;;;;;7.03;2.25;;;;;;;;;;6098566;23;20068;-81
2022/11/05 00:25:15;;;;;;;4.63;3.22;;;;;;;;;;6121980;23;20014;-81
2022/11/05 00:27:45;;;;;;;7.38;2.78;;;;;;;;;;6099182;23;20010;-81
2022/11/05 00:30:12;;;;;;;7.63;2.70;;;;;;;;;;6122914;23;20033;-81
2022/11/05 00:32:39;;;;;;;4.55;2.40;;;;;;;;;;6098619;23;20456;-81
2022/11/05 00:35:06;;;;;;;11.23;3.88;;;;;;;;;;6123305;23;20018;-81
2022/11/05 00:37:32;;;;;;;5.50;2.35;;;;;;;;;;6123575;23;20018;-81
2022/11/05 00:39:58;;;;;;;4.60;2.05;;;;;;;;;;6122388;23;20014;-81
2022/11/05 00:45:09;;;;;;;6.43;2.20;;;;;;;;;;6100710;23;20013;-82
2022/11/05 00:50:21;;;;;;;6.00;2.10;;;;;;;;;;6121570;23;20013;-81
2022/11/05 00:52:54;;;;;;;9.40;2.47;;;;;;;;;;6122609;23;20045;-81
2022/11/05 00:55:40;;;;;;;4.30;2.60;;;;;;;;;;6121614;23;20014;-81
2022/11/05 00:58:10;;;;;;;6.00;2.20;;;;;;;;;;6074386;23;20039;-81
2022/11/05 01:00:38;;;;;;;5.10;2.00;;;;;;;;;;6123016;23;20341;-81
2022/11/05 01:03:05;;;;;;;4.85;2.05;;;;;;;;;;6097973;23;20425;-81
2022/11/05 01:05:32;;;;;;;7.03;2.33;;;;;;;;;;6122620;23;20093;-81
2022/11/05 01:07:58;;;;;;;5.22;1.98;;;;;;;;;;6074821;23;20010;-81
2022/11/05 01:10:24;;;;;;;8.18;2.88;;;;;;;;;;6097117;23;20018;-81
2022/11/05 01:12:50;;;;;;;8.20;2.45;;;;;;;;;;6074290;23;20120;-81
2022/11/05 01:15:17;;;;;;;8.07;2.22;;;;;;;;;;6096631;23;20014;-81
2022/11/05 01:17:43;;;;;;;6.93;1.80;;;;;;;;;;6120906;23;20093;-81
2022/11/05 01:20:10;;;;;;;5.47;2.17;;;;;;;;;;6072253;23;20417;-81
2022/11/05 01:22:36;;;;;;;3.13;1.70;;;;;;;;;;6096440;23;20013;-81
2022/11/05 01:25:02;;;;;;;6.90;2.25;;;;;;;;;;6121623;23;20021;-81
2022/11/05 01:27:28;;;;;;;4.00;2.15;;;;;;;;;;6073993;23;20014;-81
2022/11/05 01:29:54;;;;;;;3.85;2.30;;;;;;;;;;6050193;23;20017;-81
2022/11/05 01:32:20;;;;;;;4.10;1.60;;;;;;;;;;6075130;23;20393;-81
2022/11/05 01:34:47;;;;;;;3.47;1.92;;;;;;;;;;6122658;23;20037;-81
2022/11/05 01:37:13;;;;;;;7.30;1.70;;;;;;;;;;6074194;23;20112;-81
2022/11/05 01:39:39;;;;;;;4.47;2.05;;;;;;;;;;6097953;23;20496;-80
2022/11/05 01:42:19;;;;;;;6.95;1.73;;;;;;;;;;6122415;23;20025;-81
2022/11/05 01:44:49;;;;;;;4.05;1.85;;;;;;;;;;6096999;23;20021;-81
2022/11/05 01:47:25;;;;;;;9.68;1.92;;;;;;;;;;6097879;23;20456;-81
2022/11/05 01:49:51;;;;;;;4.88;1.77;;;;;;;;;;6098049;23;20107;-81
2022/11/05 01:52:18;;;;;;;4.03;1.58;;;;;;;;;;6122480;23;20124;-81
2022/11/05 01:54:46;;;;;;;5.82;1.48;;;;;;;;;;6121728;23;20020;-81
2022/11/05 01:57:12;;;;;;;4.03;1.67;;;;;;;;;;6097502;23;20014;-81
2022/11/05 01:59:47;;;;;;;3.30;2.10;;;;;;;;;;6097918;23;20014;-81
2022/11/05 02:02:13;;;;;;;5.32;1.80;;;;;;;;;;6098290;23;20014;-81
2022/11/05 02:04:43;;;;;;;9.65;2.17;;;;;;;;;;6122272;23;20096;-81
2022/11/05 02:07:10;;;;;;;5.88;1.70;;;;;;;;;;6097743;23;20014;-81
2022/11/05 02:09:43;;;;;;;6.65;1.88;;;;;;;;;;6122212;23;20096;-81
2022/11/05 02:12:10;;;;;;;3.78;1.38;;;;;;;;;;6122147;23;20036;-81
2022/11/05 02:14:36;;;;;;;6.72;1.40;;;;;;;;;;6122018;23;20024;-81
2022/11/05 02:17:13;;;;;;;4.75;1.85;;;;;;;;;;6122925;23;20018;-81
2022/11/05 02:19:42;;;;;;;4.72;1.45;;;;;;;;;;6122602;23;20040;-81
2022/11/05 02:22:28;;;;;;;3.45;1.63;;;;;;;;;;6121896;23;20021;-81
2022/11/05 02:25:00;;;;;;;7.90;1.92;;;;;;;;;;6063699;23;20013;-81
2022/11/05 02:27:45;;;;;;;3.40;1.63;;;;;;;;;;6073408;23;20021;-81
2022/11/05 02:30:35;;;;;;;6.03;1.80;;;;;;;;;;6121577;23;20014;-81
2022/11/05 02:33:06;;;;;;;3.53;1.42;;;;;;;;;;6122296;23;20017;-81
2022/11/05 02:35:50;;;;;;;2.78;1.73;;;;;;;;;;6122220;23;20018;-81
2022/11/05 02:38:35;;;;;;;5.13;2.38;;;;;;;;;;6073864;23;20040;-81
2022/11/05 02:41:08;;;;;;;6.25;2.13;;;;;;;;;;6097032;23;20018;-81
2022/11/05 02:44:00;;;;;;;7.18;2.05;;;;;;;;;;6121442;23;20111;-81
2022/11/05 02:46:26;;;;;;;4.60;1.67;;;;;;;;;;6077332;23;20017;-81
2022/11/05 02:48:58;;;;;;;6.72;1.80;;;;;;;;;;6121523;23;20046;-81
2022/11/05 02:51:40;;;;;;;2.70;1.30;;;;;;;;;;6122109;23;20591;-81
2022/11/05 02:54:16;;;;;;;4.03;1.50;;;;;;;;;;6121758;23;20014;-81
2022/11/05 02:56:45;;;;;;;4.32;1.80;;;;;;;;;;6073157;23;20409;-81
2022/11/05 02:59:11;;;;;;;5.05;1.55;;;;;;;;;;6121254;23;20602;-81
2022/11/05 03:01:38;;;;;;;3.60;1.77;;;;;;;;;;6073946;23;20056;-81
2022/11/05 03:04:06;;;;;;;3.92;1.30;;;;;;;;;;6096835;23;20326;-81
2022/11/05 03:06:35;;;;;;;5.20;1.33;;;;;;;;;;6097124;23;20669;-81
2022/11/05 03:09:10;;;;;;;2.47;1.35;;;;;;;;;;6121381;23;20017;-81
2022/11/05 03:11:54;;;;;;;3.90;1.48;;;;;;;;;;6122013;23;20053;-81
2022/11/05 03:14:24;;;;;;;3.72;1.58;;;;;;;;;;6097587;23;20021;-81
2022/11/05 03:17:03;;;;;;;1.55;1.17;;;;;;;;;;6121410;23;20021;-81
2022/11/05 03:19:40;;;;;;;3.42;1.35;;;;;;;;;;6121386;23;20022;-81
2022/11/05 03:22:10;;;;;;;6.30;1.40;;;;;;;;;;6121251;23;20010;-81
2022/11/05 03:24:39;;;;;;;5.45;1.63;;;;;;;;;;6073238;23;20014;-81
2022/11/05 03:27:08;;;;;;;2.88;1.50;;;;;;;;;;6073420;23;20021;-81
2022/11/05 03:29:36;;;;;;;3.20;1.30;;;;;;;;;;6073179;23;20046;-81
2022/11/05 03:32:04;;;;;;;3.35;1.35;;;;;;;;;;6096010;23;20077;-81
2022/11/05 03:34:51;;;;;;;2.00;1.23;;;;;;;;;;6096842;23;20088;-81
2022/11/05 03:37:19;;;;;;;4.68;1.48;;;;;;;;;;6120478;23;20020;-81
2022/11/05 03:39:51;;;;;;;3.85;1.30;;;;;;;;;;6118655;23;20329;-81
2022/11/05 03:42:18;;;;;;;2.63;1.17;;;;;;;;;;6120164;23;20014;-82
2022/11/05 03:44:47;;;;;;;3.20;1.20;;;;;;;;;;6095139;23;20032;-81
2022/11/05 03:47:16;;;;;;;2.10;1.08;;;;;;;;;;6119290;23;20014;-81
2022/11/05 03:49:54;;;;;;;3.03;1.08;;;;;;;;;;6094741;23;20018;-81
2022/11/05 03:52:23;;;;;;;3.60;1.33;;;;;;;;;;6095173;23;20092;-81
2022/11/05 03:54:49;;;;;;;2.80;0.98;;;;;;;;;;6119822;23;20333;-81
2022/11/05 03:57:24;;;;;;;2.72;1.13;;;;;;;;;;6120598;23;20077;-81
2022/11/05 03:59:51;;;;;;;7.03;2.88;;;;;;;;;;6071116;23;20376;-81
2022/11/05 04:02:22;;;;;;;3.95;1.42;;;;;;;;;;6118860;23;20021;-81
2022/11/05 04:04:48;;;;;;;2.63;1.30;;;;;;;;;;6119084;23;20009;-81
2022/11/05 04:15:28;;;;;;;3.22;1.60;;;;;;;;;;6120793;23;20081;-81
2022/11/05 04:17:57;;;;;;;6.95;1.30;;;;;;;;;;6121126;23;20026;-81
2022/11/05 04:25:54;;;;;;;5.13;1.67;;;;;;;;;;6123078;23;20237;-81
2022/11/05 04:30:17;;;;;;;3.95;1.40;;;;;;;;;;6123578;23;20177;-81
2022/11/05 04:31:07;;;;;;;6.00;1.63;;;;;;;;;;6123543;23;20025;-81
2022/11/05 04:33:33;;;;;;;4.45;1.85;;;;;;;;;;6098975;23;20101;-81
2022/11/05 04:35:59;;;;;;;5.90;2.35;;;;;;;;;;6098778;23;20014;-81
2022/11/05 04:38:25;;;;;;;4.03;1.80;;;;;;;;;;6123245;23;20018;-82
2022/11/05 04:40:51;;;;;;;3.13;1.58;;;;;;;;;;6094573;23;20022;-82
2022/11/05 04:43:18;;;;;;;3.75;2.38;;;;;;;;;;6095903;23;20014;-81
2022/11/05 04:45:44;;;;;;;3.47;1.60;;;;;;;;;;6121105;23;20330;-81
2022/11/05 04:48:10;;;;;;;5.78;1.80;;;;;;;;;;6119953;23;20014;-82
2022/11/05 04:50:37;;;;;;;5.13;1.73;;;;;;;;;;6120141;23;20042;-81
2022/11/05 04:53:03;;;;;;;4.18;1.88;;;;;;;;;;6072677;23;20025;-81
2022/11/05 04:55:29;;;;;;;3.60;1.55;;;;;;;;;;6121055;23;20010;-81
2022/11/05 04:57:55;;;;;;;5.63;2.13;;;;;;;;;;6119971;23;20044;-81
2022/11/05 05:00:22;;;;;;;5.28;1.58;;;;;;;;;;6070871;23;20014;-81
2022/11/05 05:02:48;;;;;;;10.45;2.50;;;;;;;;;;6097996;23;20018;-81
2022/11/05 05:05:14;;;;;;;8.23;1.60;;;;;;;;;;6120795;23;20010;-81
2022/11/05 05:07:41;;;;;;;8.18;2.10;;;;;;;;;;6095069;23;20018;-81
2022/11/05 05:10:08;;;;;;;3.72;1.42;;;;;;;;;;6121927;23;20014;-81
2022/11/05 05:12:34;;;;;;;10.70;1.88;;;;;;;;;;6097114;23;20018;-81
2022/11/05 05:15:00;;;;;;;3.95;1.80;;;;;;;;;;6097653;23;20017;-81
2022/11/05 05:17:27;;;;;;;8.73;1.45;;;;;;;;;;6120585;23;20020;-81
2022/11/05 05:22:38;;;;;;;7.07;1.70;;;;;;;;;;6100534;23;20128;-81
2022/11/05 05:25:04;;;;;;;2.58;1.55;;;;;;;;;;6120650;23;20033;-81
2022/11/05 05:27:30;;;;;;;3.85;1.85;;;;;;;;;;6096088;23;20317;-81
2022/11/05 05:29:57;;;;;;;2.17;1.30;;;;;;;;;;6120926;23;20014;-80
2022/11/05 05:32:24;;;;;;;5.47;1.90;;;;;;;;;;6094214;23;20114;-81
2022/11/05 05:34:50;;;;;;;3.22;1.40;;;;;;;;;;6116967;23;20024;-80
2022/11/05 05:37:16;;;;;;;7.05;1.45;;;;;;;;;;6117413;23;20037;-80
2022/11/05 05:39:44;;;;;;;4.88;2.15;;;;;;;;;;6115598;23;20042;-80
2022/11/05 05:42:11;;;;;;;4.22;1.55;;;;;;;;;;6098216;23;20101;-81
2022/11/05 05:44:37;;;;;;;5.32;1.85;;;;;;;;;;6098092;23;20049;-81
2022/11/05 05:47:04;;;;;;;4.38;1.48;;;;;;;;;;6121381;23;20014;-82
2022/11/05 05:49:31;;;;;;;2.22;1.33;;;;;;;;;;6120615;23;20298;-81
2022/11/05 05:52:03;;;;;;;5.95;1.75;;;;;;;;;;6096143;23;20078;-82
2022/11/05 05:54:29;;;;;;;7.15;2.53;;;;;;;;;;6071754;23;20294;-81
2022/11/05 05:56:55;;;;;;;7.32;2.80;;;;;;;;;;6122988;23;20104;-82
2022/11/05 05:59:21;;;;;;;5.80;2.65;;;;;;;;;;6098172;23;20054;-82
2022/11/05 06:01:47;;;;;;;6.47;2.58;;;;;;;;;;6074444;23;20028;-81
2022/11/05 06:04:13;;;;;;;5.55;2.30;;;;;;;;;;6098829;23;20502;-81
2022/11/05 06:06:39;;;;;;;6.80;2.20;;;;;;;;;;6118695;23;20097;-81
2022/11/05 06:09:06;;;;;;;4.47;1.70;;;;;;;;;;6047689;23;20037;-81
2022/11/05 06:11:32;;;;;;;4.55;2.17;;;;;;;;;;6048673;23;20025;-81
2022/11/05 06:13:58;;;;;;;4.70;1.92;;;;;;;;;;6120566;23;20069;-81
2022/11/05 06:16:24;;;;;;;6.50;2.10;;;;;;;;;;6095475;23;20025;-81
2022/11/05 06:18:50;;;;;;;3.67;1.98;;;;;;;;;;6120000;23;20018;-81
2022/11/05 06:21:17;;;;;;;4.00;1.83;;;;;;;;;;6120286;23;20115;-81
2022/11/05 06:23:44;;;;;;;2.90;1.88;;;;;;;;;;6095208;23;20014;-81
2022/11/05 06:26:12;;;;;;;5.13;2.38;;;;;;;;;;6095193;23;20010;-81
2022/11/05 06:28:38;;;;;;;8.13;2.60;;;;;;;;;;6070404;23;20022;-81
2022/11/05 06:31:04;;;;;;;5.28;2.40;;;;;;;;;;6068983;23;20101;-82
2022/11/05 06:33:30;;;;;;;4.88;2.17;;;;;;;;;;6070821;23;20414;-82
2022/11/05 06:36:00;;;;;;;5.38;2.45;;;;;;;;;;6118951;23;20067;-81
2022/11/05 06:38:28;;;;;;;6.05;2.42;;;;;;;;;;6117943;23;20112;-82
2022/11/05 06:40:54;;;;;;;6.18;2.38;;;;;;;;;;6069511;23;20022;-83
2022/11/05 06:43:20;;;;;;;4.25;3.22;;;;;;;;;;6119163;23;20018;-81
2022/11/05 06:45:47;;;;;;;4.00;2.95;;;;;;;;;;6117427;23;20021;-81
2022/11/05 06:48:13;;;;;;;8.07;2.38;;;;;;;;;;6114990;23;20014;-82
2022/11/05 06:50:42;;;;;;;5.15;2.40;;;;;;;;;;6116280;23;20064;-81
2022/11/05 06:53:08;;;;;;;9.85;2.85;;;;;;;;;;6095415;23;20082;-81
2022/11/05 06:55:34;;;;;;;6.78;2.60;;;;;;;;;;6096478;23;20018;-81
2022/11/05 06:58:01;;;;;;;4.57;3.03;;;;;;;;;;6117684;23;20010;-81
2022/11/05 07:00:27;;;;;;;4.32;2.53;;;;;;;;;;6116645;23;20709;-81
2022/11/05 07:02:55;;;;;;;4.63;2.65;;;;;;;;;;6094173;23;20128;-80
2022/11/05 07:05:22;;;;;;;4.43;2.85;;;;;;;;;;6069471;23;20069;-80
2022/11/05 07:07:48;;;;;;;5.75;2.70;;;;;;;;;;6118457;23;20009;-80
2022/11/05 07:10:15;;;;;;;6.32;2.30;;;;;;;;;;6118716;23;20026;-80
2022/11/05 07:12:42;;;;;;;8.25;2.95;;;;;;;;;;6092757;23;20117;-81
2022/11/05 07:15:08;;;;;;;4.53;2.60;;;;;;;;;;6070328;23;20057;-80
2022/11/05 07:17:34;;;;;;;8.30;2.80;;;;;;;;;;6114325;23;20040;-81
2022/11/05 07:20:01;;;;;;;5.32;2.63;;;;;;;;;;6090982;23;20506;-81
2022/11/05 07:22:27;;;;;;;8.95;2.95;;;;;;;;;;6042739;23;20065;-80
2022/11/05 07:24:53;;;;;;;8.30;3.10;;;;;;;;;;6089947;23;20121;-80
2022/11/05 07:27:19;;;;;;;5.38;2.72;;;;;;;;;;6065873;23;20021;-80
2022/11/05 07:29:45;;;;;;;5.53;2.53;;;;;;;;;;6090514;23;20098;-80
2022/11/05 07:32:11;;;;;;;3.60;2.88;;;;;;;;;;6114942;23;20297;-80
2022/11/05 07:34:37;;;;;;;4.82;2.58;;;;;;;;;;6042525;23;20014;-80
2022/11/05 07:37:03;;;;;;;3.03;2.10;;;;;;;;;;6115032;23;20024;-80
2022/11/05 07:39:29;;;;;;;5.47;2.22;;;;;;;;;;6113050;23;20025;-80
2022/11/05 07:41:56;;;;;;;6.68;2.47;;;;;;;;;;6113301;23;20419;-81
2022/11/05 07:44:23;;;;;;;3.75;2.45;;;;;;;;;;6044949;23;20014;-81
2022/11/05 07:46:49;;;;;;;4.07;2.22;;;;;;;;;;6095822;23;20010;-81
2022/11/05 07:49:15;;;;;;;6.38;2.70;;;;;;;;;;6070787;23;20123;-80
2022/11/05 07:51:42;;;;;;;6.00;2.10;;;;;;;;;;6063381;23;20093;-80
2022/11/05 07:54:08;;;;;;;6.63;2.10;;;;;;;;;;6111459;23;20069;-80
2022/11/05 07:56:34;;;;;;;7.28;3.22;;;;;;;;;;6089484;23;20527;-80
2022/11/05 07:59:00;;;;;;;4.75;2.75;;;;;;;;;;6115013;23;20026;-80
2022/11/05 08:01:26;;;;;;;3.95;2.17;;;;;;;;;;6091683;23;20021;-80
2022/11/05 08:03:53;;;;;;;3.78;2.47;;;;;;;;;;6116523;23;20045;-80
2022/11/05 08:06:19;;;;;;;5.90;2.40;;;;;;;;;;6070707;23;20123;-80
2022/11/05 08:08:45;;;;;;;3.83;2.55;;;;;;;;;;6071838;23;20017;-80
2022/11/05 08:11:11;;;;;;;6.13;2.83;;;;;;;;;;6095165;23;20017;-79
2022/11/05 08:13:37;;;;;;;5.22;2.78;;;;;;;;;;6071752;23;20022;-80
2022/11/05 08:16:04;;;;;;;4.70;2.58;;;;;;;;;;6116688;23;20018;-79
2022/11/05 08:18:31;;;;;;;5.38;3.15;;;;;;;;;;6095463;23;20053;-79
2022/11/05 08:21:02;;;;;;;10.55;3.08;;;;;;;;;;6095706;23;20010;-79
2022/11/05 08:23:28;;;;;;;6.55;2.92;;;;;;;;;;6095132;23;20014;-80
2022/11/05 08:25:55;;;;;;;6.25;2.97;;;;;;;;;;6118897;23;20018;-80
2022/11/05 08:28:22;;;;;;;6.18;3.00;;;;;;;;;;6120788;23;20030;-80
2022/11/05 08:30:49;;;;;;;3.65;2.63;;;;;;;;;;6092939;23;20029;-80
2022/11/05 08:33:15;;;;;;;5.35;2.25;;;;;;;;;;6068765;23;20496;-80
2022/11/05 08:35:41;;;;;;;6.47;3.60;;;;;;;;;;6118036;23;20400;-79
2022/11/05 08:38:09;;;;;;;5.45;2.45;;;;;;;;;;6094270;23;20492;-84
2022/11/05 08:40:36;;;;;;;8.40;2.83;;;;;;;;;;6116125;23;20022;-79
2022/11/05 08:43:03;;;;;;;5.82;2.72;;;;;;;;;;6118935;23;20025;-79
2022/11/05 08:45:30;;;;;;;4.63;2.28;;;;;;;;;;6119893;23;20057;-79
2022/11/05 08:47:59;;;;;;;6.97;2.78;;;;;;;;;;6095836;23;20025;-78
2022/11/05 08:50:25;;;;;;;9.57;2.97;;;;;;;;;;6073334;23;20019;-79
2022/11/05 08:52:52;;;;;;;14.35;2.95;;;;;;;;;;6121186;23;20021;-79
2022/11/05 08:55:18;;;;;;;7.75;2.50;;;;;;;;;;6097130;23;20014;-80
2022/11/05 08:57:47;;;;;;;3.92;2.17;;;;;;;;;;6122069;23;20459;-81
2022/11/05 09:00:15;;;;;;;6.45;2.20;;;;;;;;;;6052069;23;20110;-84
2022/11/05 09:02:42;;;;;;;5.93;3.20;;;;;;;;;;6120783;23;20010;-85
2022/11/05 09:05:08;;;;;;;5.35;2.55;;;;;;;;;;6073663;23;20041;-84
2022/11/05 09:07:34;;;;;;;4.45;2.05;;;;;;;;;;6097950;23;20053;-85
2022/11/05 09:10:00;;;;;;;6.72;3.00;;;;;;;;;;6121887;23;20014;-85
2022/11/05 09:12:26;;;;;;;9.90;3.00;;;;;;;;;;6122505;23;20025;-85
2022/11/05 09:14:52;;;;;;;6.63;3.08;;;;;;;;;;6122341;23;20014;-84
2022/11/05 09:17:20;;;;;;;8.15;2.65;;;;;;;;;;6097392;23;20348;-84
2022/11/05 09:19:46;;;;;;;8.07;3.08;;;;;;;;;;6096841;23;20397;-85
2022/11/05 09:22:12;;;;;;;4.45;2.60;;;;;;;;;;6120691;23;20165;-83
2022/11/05 09:24:39;;;;;;;7.95;2.92;;;;;;;;;;6096315;23;20006;-82
2022/11/05 09:27:05;;;;;;;5.15;2.65;;;;;;;;;;6096519;23;20362;-83
2022/11/05 09:29:31;;;;;;;4.75;2.17;;;;;;;;;;6048990;23;20113;-78
2022/11/05 09:31:57;;;;;;;8.18;2.55;;;;;;;;;;6121477;23;20018;-78
2022/11/05 09:34:23;;;;;;;4.43;2.33;;;;;;;;;;6121797;23;20071;-78
2022/11/05 09:36:49;;;;;;;5.57;2.25;;;;;;;;;;6096981;23;20013;-79
2022/11/05 09:39:16;;;;;;;5.55;2.72;;;;;;;;;;6072075;23;20080;-79
2022/11/05 09:41:43;;;;;;;5.40;3.28;;;;;;;;;;6097329;23;20508;-79
2022/11/05 09:44:15;;;;;;;4.82;2.58;;;;;;;;;;6121570;23;20014;-79
2022/11/05 09:46:56;;;;;;;4.82;2.38;;;;;;;;;;6121478;23;20010;-79
2022/11/05 09:49:54;;;;;;;5.28;2.42;;;;;;;;;;6120006;23;20117;-79
2022/11/05 09:52:22;;;;;;;9.13;3.25;;;;;;;;;;6049779;23;20123;-79
2022/11/05 09:54:49;;;;;;;3.88;2.55;;;;;;;;;;6072920;23;20018;-79
2022/11/05 09:57:24;;;;;;;5.10;2.10;;;;;;;;;;6121769;23;20036;-79
2022/11/05 09:59:52;;;;;;;5.72;2.63;;;;;;;;;;6073370;23;20397;-79
2022/11/05 10:02:20;;;;;;;6.32;2.53;;;;;;;;;;6120893;23;20016;-78
2022/11/05 10:04:49;;;;;;;5.43;2.85;;;;;;;;;;6118014;23;20018;-78
2022/11/05 10:07:17;;;;;;;3.78;2.35;;;;;;;;;;6119552;23;20479;-78
2022/11/05 10:09:48;;;;;;;3.30;2.22;;;;;;;;;;6118846;23;20061;-78
2022/11/05 10:12:16;;;;;;;5.10;1.92;;;;;;;;;;6118255;23;20659;-78
2022/11/05 10:14:45;;;;;;;8.38;2.55;;;;;;;;;;6119181;23;20018;-78
2022/11/05 10:17:17;;;;;;;5.43;2.33;;;;;;;;;;6119639;23;20087;-78
2022/11/05 10:20:03;;;;;;;5.65;2.10;;;;;;;;;;6119171;23;20373;-78
2022/11/05 10:22:29;;;;;;;9.55;2.95;;;;;;;;;;6098614;23;20392;-78
2022/11/05 10:24:55;;;;;;;4.93;1.95;;;;;;;;;;6119006;23;20033;-79
2022/11/05 10:27:27;;;;;;;4.82;2.15;;;;;;;;;;6095011;23;20100;-79
2022/11/05 10:29:53;;;;;;;6.82;1.98;;;;;;;;;;6118444;23;20049;-79
2022/11/05 10:32:28;;;;;;;4.38;2.08;;;;;;;;;;6118893;23;20025;-79
2022/11/05 10:34:56;;;;;;;7.20;2.72;;;;;;;;;;6118378;23;20080;-79
2022/11/05 10:37:23;;;;;;;5.20;2.13;;;;;;;;;;6092890;23;20049;-79
2022/11/05 10:39:49;;;;;;;5.63;2.33;;;;;;;;;;6118170;23;20028;-79
2022/11/05 10:42:15;;;;;;;10.65;2.25;;;;;;;;;;6093800;23;20036;-79
2022/11/05 10:44:47;;;;;;;5.10;2.25;;;;;;;;;;6093895;23;20010;-79
2022/11/05 10:47:27;;;;;;;14.05;3.08;;;;;;;;;;6119083;23;20430;-78
2022/11/05 10:49:53;;;;;;;4.15;2.40;;;;;;;;;;6119059;23;20444;-77
2022/11/05 10:52:33;;;;;;;7.45;2.88;;;;;;;;;;6094133;23;20464;-78
2022/11/05 10:55:10;;;;;;;3.50;1.90;;;13.40;99.90;;;;;;6069762;23;20025;-78
2022/11/05 10:57:37;;;;;;;5.97;2.22;;;;;;;;;;6119519;23;20361;-78
2022/11/05 11:00:30;;;;;;;6.53;2.05;;;;;;;;;;6118764;23;20467;-78
2022/11/05 11:02:58;;;;;;;11.10;3.08;;;;;;;;;;6089433;23;20037;-78
2022/11/05 11:05:24;;;;;;;5.05;2.78;;;;;;;;;;6117765;23;20507;-78
2022/11/05 11:08:01;;;;;;;6.10;2.17;;;;;;;;;;6118239;23;20420;-78
2022/11/05 11:10:29;;;;;;;4.50;1.92;;;;;;;;;;6117575;23;20200;-78
2022/11/05 11:12:56;;;;;;;6.30;2.45;;;;;;;;;;6118250;23;20045;-78
2022/11/05 11:15:26;;;;;;;5.55;1.75;;;;;;;;;;6093978;23;20168;-78
2022/11/05 11:17:52;;;;;;;4.35;2.50;;;;;;;;;;6094077;23;20018;-78
2022/11/05 11:20:21;;;;;;;5.03;1.80;;;;;;;;;;6118338;23;20022;-79
2022/11/05 11:22:58;;;;;;;5.20;2.10;;;;;;;;;;6091778;23;20018;-77
2022/11/05 11:25:25;;;;;;;3.35;1.55;;;;;;;;;;6115872;23;20152;-78
2022/11/05 11:27:52;;;;;;;3.83;1.88;;;;;;;;;;6116848;23;20018;-78
2022/11/05 11:30:18;;;;;;;5.30;2.17;;;;;;;;;;6116141;23;20018;-78
2022/11/05 11:32:45;;;;;;;4.85;2.25;;;;;;;;;;6117265;23;20028;-77
2022/11/05 11:35:22;;;;;;;6.40;2.47;;;;;;;;;;6118527;23;20321;-78
2022/11/05 11:37:51;;;;;;;5.97;2.33;;;;;;;;;;6118566;23;20017;-79
2022/11/05 11:40:20;;;;;;;3.17;1.70;;;;;;;;;;6119214;23;20014;-78
2022/11/05 11:42:47;;;;;;;8.13;2.03;;;;;;;;;;6119640;23;20269;-78
2022/11/05 11:45:28;;;;;;;4.47;2.33;;;12.30;99.90;;;;;;6118719;23;20092;-78
2022/11/05 11:47:56;;;;;;;3.63;1.70;;;;;;;;;;6115056;23;20053;-79
2022/11/05 11:50:42;;;;;;;1.83;1.30;;;;;;;;;;6094971;23;20057;-80
2022/11/05 11:53:20;;;;;;;2.55;1.10;;;;;;;;;;6119028;23;20093;-79
2022/11/05 11:55:56;;;;;;;2.83;1.73;;;;;;;;;;6094429;23;20018;-78
2022/11/05 11:58:24;;;;;;;4.05;1.50;;;;;;;;;;6094796;23;20014;-78
2022/11/05 12:00:56;;;;;;;3.88;1.30;;;;;;;;;;6119899;23;20049;-79
2022/11/05 12:03:32;;;;;;;1.45;0.77;;;;;;;;;;6071330;23;20010;-78
2022/11/05 12:06:01;;;;;;;2.42;1.08;;;;;;;;;;6120025;23;20093;-79
2022/11/05 12:08:27;;;;;;;1.75;0.80;;;;;;;;;;6120144;23;20018;-79
2022/11/05 12:11:05;;;;;;;3.20;1.02;;;;;;;;;;6093982;23;20037;-79
2022/11/05 12:13:54;;;;;;;2.17;1.05;;;;;;;;;;6095210;23;20018;-79
2022/11/05 12:16:35;;;;;;;3.72;1.30;;;;;;;;;;6118587;23;20044;-79
2022/11/05 12:19:24;;;;;;;5.32;1.70;;;;;;;;;;6117502;23;20429;-79
2022/11/05 12:21:51;;;;;;;3.05;1.17;;;;;;;;;;6142661;23;20029;-79
2022/11/05 12:24:23;;;;;;;2.33;0.88;;;;;;;;;;6118941;23;20017;-78
2022/11/05 12:26:55;;;;;;;1.60;0.90;;;;;;;;;;6094313;23;20010;-79
2022/11/05 12:29:24;;;;;;;1.73;1.20;;;;;;;;;;6119322;23;20022;-78
2022/11/05 12:32:06;;;;;;;2.38;1.30;;;;;;;;;;6119701;23;20777;-79
2022/11/05 12:34:44;;;;;;;2.53;1.25;;;;;;;;;;6119983;23;20045;-79
2022/11/05 12:37:29;;;;;;;3.42;1.45;;;;;;;;;;6095896;23;20174;-80
2022/11/05 12:40:01;;;;;;;2.50;1.45;;;;;;;;;;6117013;23;20022;-80
2022/11/05 12:42:59;;;;;;;4.40;1.80;;;12.10;99.90;;;;;;6117706;23;20021;-80
2022/11/05 12:45:46;;;;;;;4.78;1.73;;;;;;;;;;6092362;23;20010;-80
2022/11/05 12:48:24;;;;;;;4.18;1.95;;;;;;;;;;6091120;23;20049;-81
2022/11/05 12:50:58;;;;;;;6.80;1.92;;;;;;;;;;6115989;23;20018;-81
2022/11/05 12:53:39;;;;;;;3.00;1.88;;;;;;;;;;6116754;23;20010;-81
2022/11/05 12:56:28;;;;;;;5.22;2.80;;;;;;;;;;6119324;23;20009;-80
2022/11/05 12:59:00;;;;;;;6.13;2.13;;;;;;;;;;6050231;23;20481;-80
2022/11/05 13:01:31;;;;;;;6.30;2.63;;;;;;;;;;6093355;23;20014;-81
2022/11/05 13:03:59;;;;;;;4.43;2.50;;;;;;;;;;6118130;23;20010;-80
2022/11/05 13:06:36;;;;;;;5.78;2.80;;;;;;;;;;6118095;23;20030;-80
2022/11/05 13:09:18;;;;;;;4.40;2.40;;;;;;;;;;6069891;23;20025;-80
2022/11/05 13:11:44;;;;;;;7.15;2.58;;;;;;;;;;6119229;23;20018;-80
2022/11/05 13:14:22;;;;;;;8.15;2.95;;;;;;;;;;6118284;23;20049;-80
2022/11/05 13:16:54;;;;;;;7.35;3.95;;;;;;;;;;6118163;23;20475;-80
2022/11/05 13:19:23;;;;;;;5.85;3.50;;;;;;;;;;6069754;23;20021;-79
2022/11/05 13:21:56;;;;;;;5.28;3.20;;;;;;;;;;6095732;23;20017;-79
2022/11/05 13:24:31;;;;;;;8.90;3.22;;;;;;;;;;6094751;23;20317;-78
2022/11/05 13:27:09;;;;;;;6.03;2.80;;;;;;;;;;6118191;23;20102;-79
2022/11/05 13:29:45;;;;;;;5.20;3.22;;;;;;;;;;6115570;23;20405;-78
2022/11/05 13:32:27;;;;;;;8.82;3.50;;;;;;;;;;6118272;23;20592;-79
2022/11/05 13:34:58;;;;;;;8.88;4.20;;;;;;;;;;6092933;23;20118;-78
2022/11/05 13:40:18;;;;;;;6.90;3.38;;;;;;;;;;6116795;23;20033;-78
2022/11/05 13:42:51;;;;;;;4.97;3.47;;;;;;;;;;6091571;23;20018;-79
2022/11/05 13:45:32;;;;;;;6.13;3.22;;;;;;;;;;6119800;23;20459;-79
2022/11/05 13:47:58;;;;;;;4.75;3.42;;;;;;;;;;6117178;23;20092;-78
2022/11/05 13:50:24;;;;;;;9.15;3.80;;;;;;;;;;6117434;23;20251;-79
2022/11/05 13:53:14;;;;;;;13.20;4.10;;;;;;;;;;6117399;23;20349;-79
2022/11/05 13:55:49;;;;;;;6.70;3.42;;;;;;;;;;6093082;23;20469;-79
2022/11/05 13:58:22;;;;;;;6.93;3.80;;;;;;;;;;6069265;23;20018;-79
2022/11/05 14:00:58;;;;;;;6.32;3.65;;;;;;;;;;6115847;23;20010;-79
2022/11/05 14:03:25;;;;;;;4.93;3.58;;;;;;;;;;6092434;23;20728;-82
2022/11/05 14:05:54;;;;;;;6.38;3.05;;;;;;;;;;6069638;23;20014;-79
2022/11/05 14:08:23;;;;;;;8.00;3.58;;;;;;;;;;6072652;23;20014;-79
2022/11/05 14:11:04;;;;;;;6.00;3.15;;;;;;;;;;6121517;23;20018;-79
2022/11/05 14:13:41;;;;;;;9.10;3.22;;;;;;;;;;6121201;23;20010;-79
2022/11/05 14:16:08;;;;;;;7.78;2.90;;;;;;;;;;6120516;23;20017;-78
2022/11/05 14:18:45;;;;;;;7.80;2.90;;;;;;;;;;6119485;23;20545;-83
2022/11/05 14:21:27;;;;;;;9.13;3.05;;;;;;;;;;6091068;23;20491;-82
2022/11/05 14:23:58;;;;;;;5.38;3.50;;;;;;;;;;6114062;23;20052;-83
2022/11/05 14:26:25;;;;;;;5.75;3.17;;;;;;;;;;6066662;23;20049;-82
2022/11/05 14:28:58;;;;;;;4.97;2.70;;;;;;;;;;6095752;23;20088;-82
2022/11/05 14:31:27;;;;;;;7.10;2.97;;;;;;;;;;6096791;23;20025;-81
2022/11/05 14:33:53;;;;;;;4.00;2.75;;;;;;;;;;6119631;23;20394;-82
2022/11/05 14:36:19;;;;;;;8.25;3.33;;;;;;;;;;6096497;23;20018;-82
2022/11/05 14:38:50;;;;;;;6.43;3.15;;;;;;;;;;6121961;23;20018;-82
2022/11/05 14:41:16;;;;;;;9.27;3.38;;;;;;;;;;6094751;23;20073;-82
2022/11/05 14:43:47;;;;;;;5.70;2.70;;;;;;;;;;6120291;23;20013;-82
2022/11/05 14:46:13;;;;;;;5.90;2.63;;;;;;;;;;6093696;23;20101;-81
2022/11/05 14:49:00;;;;;;;7.05;3.22;;;;;;;;;;6115889;23;20022;-82
2022/11/05 14:51:35;;;;;;;11.57;3.00;;;;;;;;;;6091116;23;20017;-82
2022/11/05 14:54:15;;;;;;;7.22;2.67;;;;;;;;;;6091270;23;20018;-82
2022/11/05 14:56:43;;;;;;;8.50;3.45;;;;;;;;;;6093012;23;20113;-81
2022/11/05 14:59:24;;;;;;;9.73;4.53;;;;;;;;;;6121199;23;20018;-81
2022/11/05 15:01:53;;;;;;;9.23;3.30;;;;;;;;;;6115801;23;20468;-81
2022/11/05 15:04:26;;;;;;;9.85;2.95;;;;;;;;;;6115284;23;20447;-81
2022/11/05 15:07:01;;;;;;;10.85;3.08;;;;;;;;;;6114981;23;20077;-82
2022/11/05 15:09:36;;;;;;;5.38;2.90;;;;;;;;;;6115450;23;20022;-81
2022/11/05 15:12:08;;;;;;;5.40;3.38;;;;;;;;;;6115921;23;20022;-81
2022/11/05 15:14:39;;;;;;;6.00;3.00;;;;;;;;;;6115191;23;20018;-81
2022/11/05 15:17:17;;;;;;;8.90;3.30;;;;;;;;;;6066841;23;20551;-81
2022/11/05 15:19:44;;;;;;;10.27;3.03;;;;;;;;;;6113451;23;20022;-81
2022/11/05 15:22:25;;;;;;;8.40;2.95;;;;;;;;;;6114766;23;20017;-81
2022/11/05 15:24:51;;;;;;;5.80;2.80;;;;;;;;;;6089894;23;20068;-81
2022/11/05 15:27:17;;;;;;;9.13;3.22;;;;;;;;;;6090994;23;20017;-81
2022/11/05 15:29:43;;;;;;;4.35;3.20;;;;;;;;;;6114764;23;20022;-81
2022/11/05 15:32:17;;;;;;;4.28;3.13;;;;;;;;;;6090442;23;20769;-81
2022/11/05 15:34:51;;;;;;;7.45;3.47;;;;;;;;;;6066979;23;20084;-81
2022/11/05 15:37:17;;;;;;;6.55;2.90;;;;;;;;;;6091003;23;20014;-81
2022/11/05 15:39:44;;;;;;;7.28;2.65;;;;;;;;;;6114569;23;20018;-81